Terminal Aerodrome Forecast
Issued by NWS

Home | Current Version | Previous Version | Text Only | Print | Product List | Glossary On
Versions: 1 2 3 4 5 6 7 8 9 10 11 12 13 14 15
247
FTUS42 KTBW 260533
TAFRSW
TAF
KRSW 260533Z 2606/2706 VRB04KT P6SM SCT050 BKN200
     FM261400 15006KT P6SM SCT025 SCT100 SCT250
     FM261800 25007KT P6SM VCTS SCT035CB BKN150
     FM262100 27007KT P6SM VCTS BKN040CB BKN120
     FM270100 VRB05KT P6SM SCT050 BKN100 BKN200=

USA.gov is the U.S. government's official web portal to all federal, state and local government web resources and services.